PWSweather.com
Personal Weather Stations
Station Observations
VPOKROGLO
Kal Nad Kanalom, PrimorskaSI

Kal Nad KanalomPrimorskaSI

Lat: 46.072, Lon: 13.734

Elevation: 2526

Station Type: WS-2355

http://www.okroglovreme.com

High Low Average
Temperature 42.6°F5.9°C 30.0°F-1.1°C 36.1°F2.3°C
Dew Point 27.1°F-2.7°C 18.0°F-7.8°C 24.0°F-4.4°C
Winds 15.4 mph 24.8 kmh 2.2 mph 3.5 kmh 7.0 mph E11.3 kmh E
Wind Gusts 30.0 mph48.3 kmh 2.2 mph3.5 kmh 17.0 mph27.4 kmh
Humidity 79% 40% 62%
Pressure 30.36 in1028.1 mb 30.26 in1024.7 mb -
Precipitation 0.04 in1.0 mm - -
Hour Temp Dew Point Humidity Winds Wind Gusts Pressure Precip Precip Rate Daily Precip Total
07:24 AM 30.9°F-0.6°C 22.9°F-5.1°C 72% 3.6 mph N5.8 kmh N 3.6 mph5.8 kmh 30.33 in1027.1 mb 0.00 in0.0 mm 0.00 in/hr0.0 mm/hr 0.00 in0.0 mm
07:25 AM 31.3°F-0.4°C 25.5°F-3.6°C 79% 8.9 mph NE14.3 kmh NE 8.9 mph14.3 kmh 30.32 in1026.8 mb 0.00 in0.0 mm 0.00 in/hr0.0 mm/hr 0.04 in1.0 mm
07:30 AM 31.3°F-0.4°C 22.6°F-5.2°C 70% 6.2 mph ENE10.0 kmh ENE 18.3 mph29.5 kmh 30.34 in1027.4 mb 0.00 in0.0 mm 0.00 in/hr0.0 mm/hr 0.00 in0.0 mm
07:45 AM 31.6°F-0.2°C 22.6°F-5.2°C 69% 8.1 mph ENE13.0 kmh ENE 19.7 mph31.7 kmh 30.34 in1027.4 mb 0.00 in0.0 mm 0.00 in/hr0.0 mm/hr 0.00 in0.0 mm
08:00 AM 31.6°F-0.2°C 22.3°F-5.4°C 68% 7.4 mph E11.9 kmh E 19.7 mph31.7 kmh 30.35 in1027.8 mb 0.00 in0.0 mm 0.00 in/hr0.0 mm/hr 0.00 in0.0 mm
08:15 AM 32.2°F0.1°C 22.1°F-5.5°C 66% 7.2 mph ENE11.6 kmh ENE 22.8 mph36.7 kmh 30.35 in1027.8 mb 0.00 in0.0 mm 0.00 in/hr0.0 mm/hr 0.00 in0.0 mm
08:30 AM 32.9°F0.5°C 22.0°F-5.6°C 64% 7.3 mph ENE11.7 kmh ENE 17.0 mph27.4 kmh 30.35 in1027.8 mb 0.00 in0.0 mm 0.00 in/hr0.0 mm/hr 0.00 in0.0 mm
08:45 AM 33.6°F0.9°C 21.9°F-5.6°C 62% 6.3 mph ENE10.1 kmh ENE 19.5 mph31.4 kmh 30.35 in1027.8 mb 0.00 in0.0 mm 0.00 in/hr0.0 mm/hr 0.00 in0.0 mm
09:00 AM 34.2°F1.2°C 21.7°F-5.7°C 60% 7.1 mph E11.4 kmh E 19.7 mph31.7 kmh 30.35 in1027.8 mb 0.00 in0.0 mm 0.00 in/hr0.0 mm/hr 0.00 in0.0 mm
09:15 AM 34.9°F1.6°C 21.6°F-5.8°C 58% 6.7 mph E10.8 kmh E 16.8 mph27.0 kmh 30.35 in1027.8 mb 0.00 in0.0 mm 0.00 in/hr0.0 mm/hr 0.00 in0.0 mm
09:30 AM 34.9°F1.6°C 21.2°F-6.0°C 57% 6.9 mph E11.1 kmh E 23.7 mph38.1 kmh 30.35 in1027.8 mb 0.00 in0.0 mm 0.00 in/hr0.0 mm/hr 0.00 in0.0 mm
09:45 AM 35.2°F1.8°C 21.1°F-6.1°C 56% 6.9 mph E11.1 kmh E 19.9 mph32.0 kmh 30.35 in1027.8 mb 0.00 in0.0 mm 0.00 in/hr0.0 mm/hr 0.00 in0.0 mm
10:00 AM 35.8°F2.1°C 21.2°F-6.0°C 55% 8.6 mph E13.8 kmh E 25.9 mph41.7 kmh 30.35 in1027.8 mb 0.00 in0.0 mm 0.00 in/hr0.0 mm/hr 0.00 in0.0 mm
10:15 AM 36.0°F2.2°C 20.9°F-6.2°C 54% 8.5 mph E13.7 kmh E 30.0 mph48.3 kmh 30.35 in1027.8 mb 0.00 in0.0 mm 0.00 in/hr0.0 mm/hr 0.00 in0.0 mm
10:30 AM 36.5°F2.5°C 20.5°F-6.4°C 52% 9.7 mph E15.6 kmh E 27.7 mph44.6 kmh 30.35 in1027.8 mb 0.00 in0.0 mm 0.00 in/hr0.0 mm/hr 0.00 in0.0 mm
10:45 AM 37.0°F2.8°C 21.0°F-6.1°C 52% 9.6 mph E15.4 kmh E 21.7 mph34.9 kmh 30.36 in1028.1 mb 0.00 in0.0 mm 0.00 in/hr0.0 mm/hr 0.00 in0.0 mm
11:00 AM 37.4°F3.0°C 20.9°F-6.2°C 51% 10.9 mph ENE17.5 kmh ENE 30.0 mph48.3 kmh 30.36 in1028.1 mb 0.00 in0.0 mm 0.00 in/hr0.0 mm/hr 0.00 in0.0 mm
11:15 AM 37.9°F3.3°C 21.4°F-5.9°C 51% 7.9 mph E12.7 kmh E 21.0 mph33.8 kmh 30.35 in1027.8 mb 0.00 in0.0 mm 0.00 in/hr0.0 mm/hr 0.00 in0.0 mm
11:30 AM 38.5°F3.6°C 20.9°F-6.2°C 49% 9.2 mph ENE14.8 kmh ENE 19.2 mph30.9 kmh 30.36 in1028.1 mb 0.00 in0.0 mm 0.00 in/hr0.0 mm/hr 0.00 in0.0 mm
11:45 AM 39.0°F3.9°C 20.4°F-6.4°C 47% 8.6 mph ENE13.8 kmh ENE 20.1 mph32.3 kmh 30.36 in1028.1 mb 0.00 in0.0 mm 0.00 in/hr0.0 mm/hr 0.00 in0.0 mm
12:00 PM 39.7°F4.3°C 18.9°F-7.3°C 43% 8.3 mph ENE13.4 kmh ENE 21.5 mph34.6 kmh 30.36 in1028.1 mb 0.00 in0.0 mm 0.00 in/hr0.0 mm/hr 0.00 in0.0 mm
12:15 PM 40.5°F4.7°C 18.0°F-7.8°C 40% 8.1 mph ENE13.0 kmh ENE 24.2 mph38.9 kmh 30.36 in1028.1 mb 0.00 in0.0 mm 0.00 in/hr0.0 mm/hr 0.00 in0.0 mm
12:30 PM 40.6°F4.8°C 18.2°F-7.7°C 40% 6.6 mph E10.6 kmh E 19.5 mph31.4 kmh 30.35 in1027.8 mb 0.00 in0.0 mm 0.00 in/hr0.0 mm/hr 0.00 in0.0 mm
12:45 PM 41.4°F5.2°C 20.4°F-6.4°C 43% 5.3 mph E8.5 kmh E 17.2 mph27.7 kmh 30.35 in1027.8 mb 0.00 in0.0 mm 0.00 in/hr0.0 mm/hr 0.00 in0.0 mm
01:00 PM 40.8°F4.9°C 20.4°F-6.4°C 44% 8.5 mph ENE13.7 kmh ENE 17.2 mph27.7 kmh 30.35 in1027.8 mb 0.00 in0.0 mm 0.00 in/hr0.0 mm/hr 0.00 in0.0 mm
01:15 PM 41.7°F5.4°C 22.3°F-5.4°C 46% 5.9 mph ENE9.5 kmh ENE 15.7 mph25.3 kmh 30.34 in1027.4 mb 0.00 in0.0 mm 0.00 in/hr0.0 mm/hr 0.00 in0.0 mm
01:30 PM 42.1°F5.6°C 23.2°F-4.9°C 47% 4.8 mph ENE7.7 kmh ENE 15.9 mph25.6 kmh 30.34 in1027.4 mb 0.00 in0.0 mm 0.00 in/hr0.0 mm/hr 0.00 in0.0 mm
01:45 PM 41.9°F5.5°C 23.6°F-4.7°C 48% 7.4 mph ENE11.9 kmh ENE 17.7 mph28.5 kmh 30.33 in1027.1 mb 0.00 in0.0 mm 0.00 in/hr0.0 mm/hr 0.00 in0.0 mm
02:00 PM 42.4°F5.8°C 24.1°F-4.4°C 48% 6.8 mph ENE10.9 kmh ENE 19.0 mph30.6 kmh 30.33 in1027.1 mb 0.00 in0.0 mm 0.00 in/hr0.0 mm/hr 0.00 in0.0 mm
02:15 PM 42.6°F5.9°C 24.8°F-4.0°C 49% 4.4 mph ENE7.1 kmh ENE 14.5 mph23.3 kmh 30.32 in1026.8 mb 0.00 in0.0 mm 0.00 in/hr0.0 mm/hr 0.00 in0.0 mm
02:30 PM 42.6°F5.9°C 25.3°F-3.7°C 50% 4.1 mph ENE6.6 kmh ENE 10.5 mph16.9 kmh 30.32 in1026.8 mb 0.00 in0.0 mm 0.00 in/hr0.0 mm/hr 0.00 in0.0 mm
02:45 PM 42.4°F5.8°C 25.6°F-3.6°C 51% 6.9 mph E11.1 kmh E 15.9 mph25.6 kmh 30.32 in1026.8 mb 0.00 in0.0 mm 0.00 in/hr0.0 mm/hr 0.00 in0.0 mm
03:00 PM 42.4°F5.8°C 25.6°F-3.6°C 51% 5.5 mph ESE8.9 kmh ESE 18.1 mph29.1 kmh 30.31 in1026.4 mb 0.00 in0.0 mm 0.00 in/hr0.0 mm/hr 0.00 in0.0 mm
03:15 PM 41.9°F5.5°C 25.9°F-3.4°C 53% 6.5 mph E10.5 kmh E 19.7 mph31.7 kmh 30.31 in1026.4 mb 0.00 in0.0 mm 0.00 in/hr0.0 mm/hr 0.00 in0.0 mm
03:30 PM 42.6°F5.9°C 27.1°F-2.7°C 54% 5.1 mph E8.2 kmh E 12.5 mph20.1 kmh 30.31 in1026.4 mb 0.00 in0.0 mm 0.00 in/hr0.0 mm/hr 0.00 in0.0 mm
03:45 PM 42.4°F5.8°C 26.5°F-3.1°C 53% 5.3 mph ESE8.5 kmh ESE 15.4 mph24.8 kmh 30.30 in1026.1 mb 0.00 in0.0 mm 0.00 in/hr0.0 mm/hr 0.00 in0.0 mm
04:00 PM 41.4°F5.2°C 26.7°F-2.9°C 56% 7.7 mph E12.4 kmh E 21.9 mph35.2 kmh 30.30 in1026.1 mb 0.00 in0.0 mm 0.00 in/hr0.0 mm/hr 0.00 in0.0 mm
04:15 PM 40.8°F4.9°C 26.7°F-2.9°C 57% 6.6 mph E10.6 kmh E 17.9 mph28.8 kmh 30.29 in1025.7 mb 0.00 in0.0 mm 0.00 in/hr0.0 mm/hr 0.00 in0.0 mm
04:30 PM 40.5°F4.7°C 26.8°F-2.9°C 58% 5.9 mph E9.5 kmh E 13.2 mph21.2 kmh 30.29 in1025.7 mb 0.00 in0.0 mm 0.00 in/hr0.0 mm/hr 0.00 in0.0 mm
04:45 PM 39.9°F4.4°C 27.1°F-2.7°C 60% 7.6 mph ESE12.2 kmh ESE 19.0 mph30.6 kmh 30.28 in1025.4 mb 0.00 in0.0 mm 0.00 in/hr0.0 mm/hr 0.00 in0.0 mm
05:00 PM 39.7°F4.3°C 27.0°F-2.8°C 60% 7.1 mph E11.4 kmh E 19.7 mph31.7 kmh 30.28 in1025.4 mb 0.00 in0.0 mm 0.00 in/hr0.0 mm/hr 0.00 in0.0 mm
05:15 PM 39.0°F3.9°C 26.6°F-3.0°C 61% 7.3 mph ESE11.7 kmh ESE 17.0 mph27.4 kmh 30.27 in1025.1 mb 0.00 in0.0 mm 0.00 in/hr0.0 mm/hr 0.00 in0.0 mm
05:30 PM 38.5°F3.6°C 26.5°F-3.1°C 62% 7.5 mph ESE12.1 kmh ESE 17.9 mph28.8 kmh 30.27 in1025.1 mb 0.00 in0.0 mm 0.00 in/hr0.0 mm/hr 0.00 in0.0 mm
05:45 PM 37.6°F3.1°C 26.5°F-3.1°C 64% 6.5 mph ESE10.5 kmh ESE 19.0 mph30.6 kmh 30.27 in1025.1 mb 0.00 in0.0 mm 0.00 in/hr0.0 mm/hr 0.00 in0.0 mm
06:00 PM 37.2°F2.9°C 26.5°F-3.1°C 65% 7.5 mph SE12.1 kmh SE 16.6 mph26.7 kmh 30.27 in1025.1 mb 0.00 in0.0 mm 0.00 in/hr0.0 mm/hr 0.00 in0.0 mm
06:15 PM 37.2°F2.9°C 26.5°F-3.1°C 65% 8.2 mph ESE13.2 kmh ESE 26.8 mph43.1 kmh 30.27 in1025.1 mb 0.00 in0.0 mm 0.00 in/hr0.0 mm/hr 0.00 in0.0 mm
06:30 PM 37.0°F2.8°C 26.3°F-3.2°C 65% 8.7 mph ESE14.0 kmh ESE 23.7 mph38.1 kmh 30.26 in1024.7 mb 0.00 in0.0 mm 0.00 in/hr0.0 mm/hr 0.00 in0.0 mm
06:45 PM 36.9°F2.7°C 26.2°F-3.2°C 65% 7.6 mph ESE12.2 kmh ESE 16.8 mph27.0 kmh 30.27 in1025.1 mb 0.00 in0.0 mm 0.00 in/hr0.0 mm/hr 0.00 in0.0 mm
07:00 PM 36.9°F2.7°C 26.2°F-3.2°C 65% 8.9 mph SE14.3 kmh SE 21.0 mph33.8 kmh 30.26 in1024.7 mb 0.00 in0.0 mm 0.00 in/hr0.0 mm/hr 0.00 in0.0 mm
07:15 PM 36.7°F2.6°C 26.0°F-3.3°C 65% 8.2 mph ESE13.2 kmh ESE 21.0 mph33.8 kmh 30.27 in1025.1 mb 0.00 in0.0 mm 0.00 in/hr0.0 mm/hr 0.00 in0.0 mm
07:30 PM 36.5°F2.5°C 25.8°F-3.4°C 65% 9.3 mph ESE15.0 kmh ESE 24.2 mph38.9 kmh 30.26 in1024.7 mb 0.00 in0.0 mm 0.00 in/hr0.0 mm/hr 0.00 in0.0 mm
07:45 PM 36.3°F2.4°C 25.7°F-3.5°C 65% 8.9 mph E14.3 kmh E 20.6 mph33.2 kmh 30.26 in1024.7 mb 0.00 in0.0 mm 0.00 in/hr0.0 mm/hr 0.00 in0.0 mm
08:00 PM 36.3°F2.4°C 25.7°F-3.5°C 65% 9.3 mph ESE15.0 kmh ESE 21.5 mph34.6 kmh 30.26 in1024.7 mb 0.00 in0.0 mm 0.00 in/hr0.0 mm/hr 0.00 in0.0 mm
08:15 PM 36.1°F2.3°C 25.5°F-3.6°C 65% 8.7 mph SE14.0 kmh SE 19.5 mph31.4 kmh 30.26 in1024.7 mb 0.00 in0.0 mm 0.00 in/hr0.0 mm/hr 0.00 in0.0 mm
08:30 PM 36.1°F2.3°C 25.5°F-3.6°C 65% 8.1 mph ESE13.0 kmh ESE 18.3 mph29.5 kmh 30.27 in1025.1 mb 0.00 in0.0 mm 0.00 in/hr0.0 mm/hr 0.00 in0.0 mm
08:45 PM 36.1°F2.3°C 25.5°F-3.6°C 65% 7.6 mph E12.2 kmh E 21.0 mph33.8 kmh 30.28 in1025.4 mb 0.00 in0.0 mm 0.00 in/hr0.0 mm/hr 0.00 in0.0 mm
09:00 PM 36.1°F2.3°C 25.5°F-3.6°C 65% 8.6 mph E13.8 kmh E 23.3 mph37.5 kmh 30.28 in1025.4 mb 0.00 in0.0 mm 0.00 in/hr0.0 mm/hr 0.00 in0.0 mm
09:15 PM 36.0°F2.2°C 25.3°F-3.7°C 65% 8.1 mph E13.0 kmh E 19.7 mph31.7 kmh 30.27 in1025.1 mb 0.00 in0.0 mm 0.00 in/hr0.0 mm/hr 0.00 in0.0 mm
09:30 PM 35.8°F2.1°C 25.1°F-3.8°C 65% 7.4 mph SE11.9 kmh SE 21.7 mph34.9 kmh 30.27 in1025.1 mb 0.00 in0.0 mm 0.00 in/hr0.0 mm/hr 0.00 in0.0 mm
09:45 PM 35.6°F2.0°C 25.0°F-3.9°C 65% 7.4 mph SE11.9 kmh SE 20.6 mph33.2 kmh 30.28 in1025.4 mb 0.00 in0.0 mm 0.00 in/hr0.0 mm/hr 0.00 in0.0 mm
10:00 PM 35.8°F2.1°C 25.5°F-3.6°C 66% 8.1 mph SE13.0 kmh SE 23.5 mph37.8 kmh 30.27 in1025.1 mb 0.00 in0.0 mm 0.00 in/hr0.0 mm/hr 0.00 in0.0 mm
10:15 PM 35.4°F1.9°C 25.2°F-3.8°C 66% 8.9 mph ESE14.3 kmh ESE 21.9 mph35.2 kmh 30.27 in1025.1 mb 0.00 in0.0 mm 0.00 in/hr0.0 mm/hr 0.00 in0.0 mm
10:30 PM 35.2°F1.8°C 25.0°F-3.9°C 66% 8.5 mph E13.7 kmh E 19.9 mph32.0 kmh 30.26 in1024.7 mb 0.00 in0.0 mm 0.00 in/hr0.0 mm/hr 0.00 in0.0 mm
10:45 PM 35.2°F1.8°C 25.3°F-3.7°C 67% 7.7 mph E12.4 kmh E 19.0 mph30.6 kmh 30.27 in1025.1 mb 0.00 in0.0 mm 0.00 in/hr0.0 mm/hr 0.00 in0.0 mm
11:00 PM 34.9°F1.6°C 25.0°F-3.9°C 67% 8.5 mph ESE13.7 kmh ESE 23.0 mph37.0 kmh 30.26 in1024.7 mb 0.00 in0.0 mm 0.00 in/hr0.0 mm/hr 0.00 in0.0 mm
11:15 PM 34.9°F1.6°C 24.6°F-4.1°C 66% 7.3 mph E11.7 kmh E 16.1 mph25.9 kmh 30.27 in1025.1 mb 0.00 in0.0 mm 0.00 in/hr0.0 mm/hr 0.00 in0.0 mm
11:30 PM 34.9°F1.6°C 24.6°F-4.1°C 66% 7.5 mph E12.1 kmh E 21.3 mph34.3 kmh 30.27 in1025.1 mb 0.00 in0.0 mm 0.00 in/hr0.0 mm/hr 0.00 in0.0 mm
11:45 PM 34.9°F1.6°C 24.6°F-4.1°C 66% 6.7 mph E10.8 kmh E 19.0 mph30.6 kmh 30.27 in1025.1 mb 0.00 in0.0 mm 0.00 in/hr0.0 mm/hr 0.00 in0.0 mm